createdAt,value
2018-06-28T00:01:38.484Z,69.55
2018-06-28T00:04:07.155Z,69.83
2018-06-28T00:06:35.829Z,70.17
2018-06-28T00:09:06.263Z,70.77
2018-06-28T00:11:35.465Z,70.89
2018-06-28T00:14:04.489Z,71.36
2018-06-28T00:16:33.040Z,71.88
2018-06-28T00:19:01.638Z,71.57
2018-06-28T00:21:30.385Z,70.36
2018-06-28T00:24:05.217Z,70.19
2018-06-28T00:26:35.089Z,69.84
2018-06-28T00:29:03.749Z,70.42
2018-06-28T00:31:32.325Z,72.37
2018-06-28T00:34:00.865Z,72.38
2018-06-28T00:36:29.453Z,72.12
2018-06-28T00:38:58.036Z,72.79
2018-06-28T00:41:26.628Z,72.08
2018-06-28T00:43:55.322Z,71.96
2018-06-28T00:46:23.950Z,72.09
2018-06-28T00:48:52.581Z,71.63
2018-06-28T00:51:21.173Z,72.42
2018-06-28T00:53:49.809Z,72.89
2018-06-28T00:56:18.486Z,73.37
2018-06-28T00:58:47.104Z,74.34
2018-06-28T01:01:15.697Z,72.92
2018-06-28T01:03:44.300Z,73.37
2018-06-28T01:06:12.920Z,74.01
2018-06-28T01:08:41.524Z,75.15
2018-06-28T01:11:10.148Z,74.65
2018-06-28T01:13:38.797Z,74.00
2018-06-28T01:16:07.540Z,74.08
2018-06-28T01:18:36.206Z,74.53
2018-06-28T01:21:05.189Z,75.71
2018-06-28T01:23:33.786Z,75.67
2018-06-28T01:26:02.332Z,76.25
2018-06-28T01:28:30.912Z,75.77
2018-06-28T01:30:59.553Z,75.33
2018-06-28T01:33:28.146Z,76.60
2018-06-28T01:35:56.713Z,75.59
2018-06-28T01:38:25.336Z,74.26
2018-06-28T01:40:54.312Z,74.98
2018-06-28T01:43:50.785Z,75.65
2018-06-28T01:46:19.594Z,76.37
2018-06-28T01:48:48.644Z,76.62
2018-06-28T01:51:17.216Z,79.33
2018-06-28T01:53:45.770Z,78.47
2018-06-28T01:56:14.309Z,76.54
2018-06-28T01:58:42.865Z,75.25
2018-06-28T02:01:11.396Z,76.30
2018-06-28T02:03:39.965Z,76.95
2018-06-28T02:06:08.537Z,76.53
2018-06-28T02:08:37.085Z,75.22
2018-06-28T02:11:05.596Z,73.84
2018-06-28T02:13:34.141Z,74.58
2018-06-28T02:16:02.645Z,74.63
2018-06-28T02:18:31.239Z,74.65
2018-06-28T02:20:59.757Z,75.72
2018-06-28T02:23:28.310Z,75.76
2018-06-28T02:25:56.825Z,74.58
2018-06-28T02:28:25.383Z,74.32
2018-06-28T02:30:53.909Z,74.18
2018-06-28T02:33:22.429Z,74.76
2018-06-28T02:35:50.929Z,74.47
2018-06-28T02:38:19.477Z,74.22
2018-06-28T02:40:49.012Z,73.95
2018-06-28T02:43:17.568Z,73.76
2018-06-28T02:45:46.074Z,73.75
2018-06-28T02:48:14.788Z,73.17
2018-06-28T02:50:43.292Z,73.12
2018-06-28T02:53:11.832Z,73.94
2018-06-28T02:55:40.382Z,73.43
2018-06-28T02:58:08.913Z,73.30
2018-06-28T03:00:37.452Z,72.56
2018-06-28T03:03:05.977Z,72.88
2018-06-28T03:05:34.532Z,73.24
2018-06-28T03:08:03.076Z,74.04
2018-06-28T03:10:31.626Z,73.31
2018-06-28T03:13:00.147Z,73.52
2018-06-28T03:15:28.728Z,73.39
2018-06-28T03:17:57.259Z,72.30
2018-06-28T03:20:25.806Z,72.09
2018-06-28T03:22:54.320Z,73.22
2018-06-28T03:25:22.856Z,72.22
2018-06-28T03:27:51.363Z,73.45
2018-06-28T03:30:19.929Z,73.90
2018-06-28T03:32:48.937Z,72.81
2018-06-28T03:35:17.489Z,72.68
2018-06-28T03:37:46.048Z,72.68
2018-06-28T03:40:14.594Z,73.59
2018-06-28T03:42:43.151Z,75.15
2018-06-28T03:45:11.684Z,75.88
2018-06-28T03:47:40.186Z,74.85
2018-06-28T03:50:08.782Z,74.46
2018-06-28T03:52:37.276Z,74.51
2018-06-28T03:55:05.924Z,75.60
2018-06-28T03:57:34.433Z,75.62
2018-06-28T04:00:03.000Z,75.59
2018-06-28T04:02:31.529Z,75.55
2018-06-28T04:05:00.062Z,75.66
2018-06-28T04:07:28.593Z,74.15
2018-06-28T04:09:57.136Z,74.19
2018-06-28T04:12:25.650Z,75.37
2018-06-28T04:14:54.180Z,76.03
2018-06-28T04:17:22.693Z,75.44
2018-06-28T04:19:51.226Z,74.99
2018-06-28T04:22:23.857Z,74.21
2018-06-28T04:24:52.412Z,74.11
2018-06-28T04:27:21.268Z,73.31
2018-06-28T04:29:49.789Z,73.08
2018-06-28T04:32:19.298Z,73.62
2018-06-28T04:34:47.845Z,72.86
2018-06-28T04:37:16.369Z,71.75
2018-06-28T04:39:44.907Z,72.09
2018-06-28T04:42:13.409Z,71.40
2018-06-28T04:44:42.114Z,71.82
2018-06-28T04:47:10.964Z,72.26
2018-06-28T04:49:39.475Z,72.65
2018-06-28T04:52:08.062Z,72.75
2018-06-28T04:54:36.564Z,71.75
2018-06-28T04:57:05.405Z,72.57
2018-06-28T04:59:33.922Z,72.14
2018-06-28T05:02:02.457Z,72.29
2018-06-28T05:04:30.955Z,71.68
2018-06-28T05:06:59.602Z,71.24
2018-06-28T05:09:28.245Z,71.21
2018-06-28T05:11:56.800Z,70.13
2018-06-28T05:14:25.295Z,71.74
2018-06-28T05:16:54.255Z,70.51
2018-06-28T05:19:22.768Z,69.79
2018-06-28T05:21:51.325Z,69.52
2018-06-28T05:24:19.849Z,70.37
2018-06-28T05:26:49.399Z,70.46
2018-06-28T05:29:17.977Z,69.91
2018-06-28T05:31:46.521Z,69.31
2018-06-28T05:34:15.057Z,69.86
2018-06-28T05:36:43.604Z,69.70
2018-06-28T05:39:12.513Z,68.81
2018-06-28T05:41:41.061Z,68.85
2018-06-28T05:44:09.621Z,68.75
2018-06-28T05:46:38.193Z,68.41
2018-06-28T05:49:06.983Z,69.08
2018-06-28T05:51:35.981Z,68.52
2018-06-28T05:54:04.630Z,68.06
2018-06-28T05:56:33.093Z,67.79
2018-06-28T05:59:01.629Z,67.32
2018-06-28T06:01:30.250Z,66.33
2018-06-28T06:03:58.744Z,66.06
2018-06-28T06:06:30.201Z,66.32
2018-06-28T06:08:58.744Z,66.65
2018-06-28T06:11:27.277Z,67.87
2018-06-28T06:13:55.821Z,65.89
2018-06-28T06:16:24.393Z,66.11
2018-06-28T06:18:53.017Z,65.94
2018-06-28T06:21:21.533Z,65.76
2018-06-28T06:23:50.088Z,65.24
2018-06-28T06:26:22.334Z,64.71
2018-06-28T06:28:50.888Z,64.06
2018-06-28T06:31:19.653Z,62.99
2018-06-28T06:33:48.217Z,62.45
2018-06-28T06:36:16.795Z,62.41
2018-06-28T06:38:45.324Z,62.12
2018-06-28T06:41:13.904Z,60.48
2018-06-28T06:43:42.457Z,61.08
2018-06-28T06:46:11.041Z,59.39
2018-06-28T06:48:39.667Z,60.29
2018-06-28T06:51:08.237Z,59.58
2018-06-28T06:53:36.753Z,60.12
2018-06-28T06:56:05.360Z,58.01
2018-06-28T06:58:33.893Z,57.61
2018-06-28T07:01:02.484Z,58.54
2018-06-28T07:03:31.116Z,58.04
2018-06-28T07:06:00.273Z,58.41
2018-06-28T07:08:29.153Z,57.58
2018-06-28T07:10:57.722Z,56.65
2018-06-28T07:13:26.255Z,57.81
2018-06-28T07:16:01.730Z,56.92
2018-06-28T07:18:30.236Z,57.41
2018-06-28T07:20:58.817Z,57.74
2018-06-28T07:23:27.369Z,56.22
2018-06-28T07:25:55.901Z,55.68
2018-06-28T07:28:24.518Z,56.17
2018-06-28T07:30:53.053Z,55.41
2018-06-28T07:33:21.601Z,55.28
2018-06-28T07:35:50.205Z,54.44
2018-06-28T07:38:18.779Z,54.50
2018-06-28T07:40:47.317Z,55.31
2018-06-28T07:43:15.961Z,55.70
2018-06-28T07:45:44.489Z,55.40
2018-06-28T07:48:13.069Z,54.70
2018-06-28T07:50:41.633Z,54.12
2018-06-28T07:53:10.190Z,54.38
2018-06-28T07:55:38.742Z,54.64
2018-06-28T07:58:07.321Z,55.47
2018-06-28T08:00:35.850Z,55.44
2018-06-28T08:03:04.758Z,54.92
2018-06-28T08:05:35.317Z,56.44
2018-06-28T08:08:03.917Z,54.80
2018-06-28T08:10:32.433Z,55.01
2018-06-28T08:13:00.960Z,55.36
2018-06-28T08:15:29.485Z,55.37
2018-06-28T08:17:58.028Z,54.10
2018-06-28T08:20:46.034Z,55.25
2018-06-28T08:23:31.870Z,54.66
2018-06-28T08:26:19.305Z,54.25
2018-06-28T08:29:03.305Z,54.30
2018-06-28T08:31:42.054Z,55.85
2018-06-28T08:34:25.582Z,53.71
2018-06-28T08:37:09.902Z,54.12
2018-06-28T08:39:42.407Z,53.11
2018-06-28T08:42:11.185Z,53.79
2018-06-28T08:44:42.719Z,51.83
2018-06-28T08:47:11.232Z,51.61
2018-06-28T08:49:39.793Z,53.12
2018-06-28T08:52:08.373Z,52.95
2018-06-28T08:54:36.910Z,51.05
2018-06-28T08:57:05.484Z,51.22
2018-06-28T08:59:34.025Z,51.70
2018-06-28T09:02:02.544Z,50.69
2018-06-28T09:04:31.258Z,51.71
2018-06-28T09:06:59.971Z,51.71
2018-06-28T09:09:28.590Z,49.38
2018-06-28T09:11:57.213Z,49.33
2018-06-28T09:14:25.770Z,49.39
2018-06-28T09:16:54.317Z,50.24
2018-06-28T09:19:22.868Z,49.45
2018-06-28T09:21:51.497Z,49.21
2018-06-28T09:24:20.656Z,48.96
2018-06-28T09:26:49.166Z,49.14
2018-06-28T09:29:17.715Z,49.73
2018-06-28T09:31:50.271Z,48.62
2018-06-28T09:34:21.928Z,48.78
2018-06-28T09:36:50.882Z,48.55
2018-06-28T09:39:20.242Z,48.78
2018-06-28T09:41:48.838Z,48.34
2018-06-28T09:44:17.409Z,48.26
2018-06-28T09:46:45.935Z,49.37
2018-06-28T09:49:14.525Z,48.42
2018-06-28T09:51:43.054Z,47.04
2018-06-28T09:54:11.780Z,48.34
2018-06-28T09:56:40.341Z,46.78
2018-06-28T09:59:08.912Z,45.56
2018-06-28T10:01:37.457Z,45.69
2018-06-28T10:04:06.044Z,46.15
2018-06-28T10:06:34.613Z,47.46
2018-06-28T10:09:03.293Z,47.28
2018-06-28T10:11:32.495Z,46.94
2018-06-28T10:14:01.236Z,46.65
2018-06-28T10:16:29.825Z,46.48
2018-06-28T10:18:58.422Z,46.08
2018-06-28T10:21:26.953Z,46.67
2018-06-28T10:23:55.465Z,47.27
2018-06-28T10:26:24.467Z,46.48
2018-06-28T10:28:53.300Z,45.17
2018-06-28T10:31:21.921Z,47.11
2018-06-28T10:33:50.861Z,47.41
2018-06-28T10:36:19.396Z,46.55
2018-06-28T10:38:48.244Z,46.61
2018-06-28T10:41:17.033Z,45.52
2018-06-28T10:43:45.768Z,44.89
2018-06-28T10:46:14.317Z,45.71
2018-06-28T10:48:42.908Z,45.33
2018-06-28T10:51:11.436Z,44.18
2018-06-28T10:53:39.941Z,44.63
2018-06-28T10:56:08.592Z,44.32
2018-06-28T10:58:37.116Z,44.78
2018-06-28T11:01:05.917Z,44.21
2018-06-28T11:03:34.616Z,43.20
2018-06-28T11:06:03.552Z,41.88
2018-06-28T11:08:32.064Z,43.03
2018-06-28T11:11:00.660Z,44.27
2018-06-28T11:13:33.832Z,43.04
2018-06-28T11:16:04.618Z,42.54
2018-06-28T11:18:34.993Z,42.40
2018-06-28T11:21:05.759Z,44.17
2018-06-28T11:23:35.852Z,42.94
2018-06-28T11:26:08.479Z,42.58
2018-06-28T11:28:39.486Z,43.46
2018-06-28T11:31:11.206Z,42.17
2018-06-28T11:33:40.989Z,42.84
2018-06-28T11:36:10.238Z,44.11
2018-06-28T11:38:42.125Z,43.45
2018-06-28T11:41:14.114Z,43.65
2018-06-28T11:43:46.640Z,42.18
2018-06-28T11:46:19.007Z,43.00
2018-06-28T11:48:50.245Z,42.47
2018-06-28T11:51:21.592Z,43.82
2018-06-28T11:53:54.951Z,43.72
2018-06-28T11:56:26.858Z,43.70
2018-06-28T11:59:00.576Z,43.41
2018-06-28T12:01:32.815Z,42.55
2018-06-28T12:04:04.253Z,42.11
2018-06-28T12:06:32.868Z,41.05
2018-06-28T12:09:01.411Z,41.84
2018-06-28T12:11:29.965Z,42.54
2018-06-28T12:13:58.511Z,43.06
2018-06-28T12:16:27.998Z,42.38
2018-06-28T12:19:02.008Z,41.42
2018-06-28T12:21:30.916Z,40.56
2018-06-28T12:23:59.836Z,42.56
2018-06-28T12:26:34.015Z,41.52
2018-06-28T12:29:07.892Z,41.15
2018-06-28T12:31:36.753Z,39.80
2018-06-28T12:34:05.376Z,40.25
2018-06-28T12:36:33.949Z,39.54
2018-06-28T12:39:03.684Z,39.92
2018-06-28T12:41:32.449Z,39.87
2018-06-28T12:44:00.975Z,38.66
2018-06-28T12:47:48.827Z,39.70
2018-06-28T12:50:18.038Z,37.66
2018-06-28T12:52:50.977Z,37.21
2018-06-28T12:55:20.344Z,37.16
2018-06-28T12:57:56.401Z,37.78
2018-06-28T13:00:25.749Z,40.11
2018-06-28T13:02:54.421Z,38.70
2018-06-28T13:05:23.444Z,37.00
2018-06-28T13:08:00.322Z,38.46
2018-06-28T13:10:29.001Z,38.41
2018-06-28T13:12:57.713Z,36.76
2018-06-28T13:15:26.368Z,37.68
2018-06-28T13:17:54.996Z,37.91
2018-06-28T13:20:23.606Z,38.34
2018-06-28T13:22:52.233Z,38.26
2018-06-28T13:25:21.217Z,37.79
2018-06-28T13:27:49.795Z,38.78
2018-06-28T13:30:18.305Z,36.23
2018-06-28T13:32:46.855Z,37.34
2018-06-28T13:35:15.364Z,38.28
2018-06-28T13:37:44.185Z,37.04
2018-06-28T13:40:12.743Z,35.99
2018-06-28T13:42:41.461Z,35.60
2018-06-28T13:45:09.991Z,38.72
2018-06-28T13:47:38.538Z,35.85
2018-06-28T13:50:07.454Z,37.33
2018-06-28T13:52:36.089Z,38.15
2018-06-28T13:55:04.631Z,37.69
2018-06-28T13:57:33.476Z,36.38
2018-06-28T14:00:01.977Z,35.91
2018-06-28T14:02:31.496Z,35.36
2018-06-28T14:04:59.999Z,35.32
2018-06-28T14:07:28.608Z,36.47
2018-06-28T14:09:57.162Z,35.97
2018-06-28T14:12:25.704Z,36.11
2018-06-28T14:14:54.261Z,36.38
2018-06-28T14:17:24.773Z,36.83
2018-06-28T14:19:53.831Z,38.06
2018-06-28T14:22:22.559Z,37.71
2018-06-28T14:24:51.486Z,37.39
2018-06-28T14:27:20.017Z,37.11
2018-06-28T14:29:48.781Z,35.97
2018-06-28T14:32:17.305Z,36.17
2018-06-28T14:34:46.037Z,36.36
2018-06-28T14:37:16.015Z,37.47
2018-06-28T14:39:44.850Z,36.78
2018-06-28T14:42:13.830Z,37.00
2018-06-28T14:44:42.399Z,37.58
2018-06-28T14:47:12.703Z,37.42
2018-06-28T14:49:41.652Z,37.90
2018-06-28T14:52:10.205Z,38.88
2018-06-28T14:54:39.004Z,36.70
2018-06-28T14:57:07.549Z,37.41
2018-06-28T14:59:36.161Z,38.36
2018-06-28T15:02:04.711Z,38.31
2018-06-28T15:04:33.421Z,37.41
2018-06-28T15:07:04.119Z,37.02
2018-06-28T15:09:32.788Z,37.36
2018-06-28T15:12:04.973Z,36.37
2018-06-28T15:14:43.020Z,35.92
2018-06-28T15:17:12.264Z,36.90
2018-06-28T15:19:42.241Z,35.65
2018-06-28T15:22:11.167Z,37.02
2018-06-28T15:24:43.712Z,37.04
2018-06-28T15:27:12.555Z,37.26
2018-06-28T15:29:42.754Z,36.77
2018-06-28T15:32:17.099Z,37.52
2018-06-28T15:34:48.954Z,35.97
2018-06-28T15:37:18.559Z,37.09
2018-06-28T15:39:49.250Z,38.11
2018-06-28T15:42:21.953Z,37.04
2018-06-28T15:44:53.760Z,36.24
2018-06-28T15:47:28.136Z,35.70
2018-06-28T15:50:00.202Z,36.17
2018-06-28T15:52:33.682Z,37.75
2018-06-28T15:55:03.522Z,36.83
2018-06-28T15:57:32.966Z,36.80
2018-06-28T16:00:02.902Z,37.48
2018-06-28T16:02:32.493Z,36.84
2018-06-28T16:05:05.957Z,38.41
2018-06-28T16:07:38.842Z,37.30
2018-06-28T16:10:10.239Z,36.34
2018-06-28T16:12:41.215Z,37.16
2018-06-28T16:15:10.551Z,36.15
2018-06-28T16:17:44.652Z,35.89
2018-06-28T16:20:19.789Z,36.73
2018-06-28T16:22:54.016Z,35.69
2018-06-28T16:25:25.374Z,35.05
2018-06-28T16:27:59.249Z,35.31
2018-06-28T16:30:29.232Z,34.96
2018-06-28T16:32:59.261Z,34.97
2018-06-28T16:35:29.373Z,33.80
2018-06-28T16:37:58.167Z,33.81
2018-06-28T16:40:31.600Z,35.20
2018-06-28T16:43:01.242Z,32.99
2018-06-28T16:45:36.685Z,32.27
2018-06-28T16:48:05.847Z,27.52
2018-06-28T16:50:35.821Z,24.54
2018-06-28T16:53:04.582Z,21.97
2018-06-28T16:55:38.105Z,20.81
2018-06-28T16:58:07.180Z,21.09
2018-06-28T17:00:40.703Z,22.06
2018-06-28T17:03:15.200Z,22.43
2018-06-28T17:05:45.757Z,21.59
2018-06-28T17:08:15.297Z,21.55
2018-06-28T17:10:43.922Z,21.82
2018-06-28T17:13:17.389Z,22.03
2018-06-28T17:15:49.488Z,23.22
2018-06-28T17:18:18.849Z,22.68
2018-06-28T17:20:52.332Z,23.73
2018-06-28T17:23:27.991Z,23.06
2018-06-28T17:25:58.500Z,24.17
2018-06-28T17:28:27.056Z,22.95
2018-06-28T17:30:57.114Z,23.48
2018-06-28T17:33:30.194Z,24.99
2018-06-28T17:36:03.996Z,29.69
2018-06-28T17:38:33.627Z,30.29
2018-06-28T17:41:02.609Z,31.23
2018-06-28T17:43:31.182Z,25.23
2018-06-28T17:46:00.236Z,23.80
2018-06-28T17:48:29.564Z,23.27
2018-06-28T17:50:58.989Z,22.53
2018-06-28T17:53:28.348Z,24.41
2018-06-28T17:55:56.909Z,24.11
2018-06-28T17:58:30.626Z,28.58
2018-06-28T18:00:59.199Z,29.72
2018-06-28T18:03:27.927Z,31.92
2018-06-28T18:05:56.501Z,32.69
2018-06-28T18:08:25.080Z,32.85
2018-06-28T18:10:54.084Z,34.07
2018-06-28T18:13:22.723Z,34.69
2018-06-28T18:15:51.288Z,35.48
2018-06-28T18:18:19.841Z,36.01
2018-06-28T18:20:48.490Z,36.05
2018-06-28T18:23:17.108Z,36.31
2018-06-28T18:25:45.636Z,36.70
2018-06-28T18:28:14.203Z,37.28
2018-06-28T18:30:43.090Z,39.08
2018-06-28T18:33:11.683Z,39.24
2018-06-28T18:35:40.221Z,40.80
2018-06-28T18:38:08.814Z,41.85
2018-06-28T18:40:37.333Z,41.62
2018-06-28T18:43:06.057Z,43.08
2018-06-28T18:45:34.588Z,41.98
2018-06-28T18:48:03.146Z,44.74
2018-06-28T18:50:32.210Z,44.29
2018-06-28T18:53:00.936Z,45.59
2018-06-28T18:55:29.588Z,44.34
2018-06-28T18:57:58.184Z,46.67
2018-06-28T19:00:26.781Z,45.41
2018-06-28T19:02:55.397Z,46.24
2018-06-28T19:05:24.009Z,45.68
2018-06-28T19:07:52.830Z,45.68
2018-06-28T19:10:26.709Z,47.48
2018-06-28T19:12:55.260Z,45.29
2018-06-28T19:15:29.140Z,46.66
2018-06-28T19:17:59.104Z,47.83
2018-06-28T19:20:28.705Z,48.10
2018-06-28T19:23:03.472Z,47.98
2018-06-28T19:25:32.440Z,46.51
2018-06-28T19:28:01.395Z,44.91
2018-06-28T19:30:35.774Z,45.85
2018-06-28T19:33:04.943Z,45.89
2018-06-28T19:35:33.917Z,45.67
2018-06-28T19:38:02.476Z,45.70
2018-06-28T19:40:36.413Z,45.47
2018-06-28T19:43:07.901Z,48.10
2018-06-28T19:45:36.586Z,47.98
2018-06-28T19:48:05.221Z,50.40
2018-06-28T19:50:39.353Z,49.09
2018-06-28T19:53:16.228Z,47.92
2018-06-28T19:55:44.798Z,48.71
2018-06-28T19:58:13.392Z,50.66
2018-06-28T20:00:47.448Z,51.50
2018-06-28T20:03:21.258Z,53.09
2018-06-28T20:05:49.828Z,52.86
2018-06-28T20:08:18.457Z,52.53
2018-06-28T20:10:47.025Z,52.76
2018-06-28T20:13:20.808Z,55.29
2018-06-28T20:15:56.580Z,56.89
2018-06-28T20:18:30.332Z,56.43
2018-06-28T20:21:00.539Z,56.54
2018-06-28T20:23:29.432Z,57.11
2018-06-28T20:25:58.344Z,57.58
2018-06-28T20:28:32.362Z,57.29
2018-06-28T20:31:06.073Z,56.08
2018-06-28T20:33:39.738Z,56.37
2018-06-28T20:36:08.275Z,55.81
2018-06-28T20:38:36.830Z,56.15
2018-06-28T20:41:05.535Z,56.29
2018-06-28T20:43:34.108Z,55.95
2018-06-28T20:46:02.693Z,57.32
2018-06-28T20:48:31.225Z,58.64
2018-06-28T20:50:59.875Z,58.47
2018-06-28T20:53:28.442Z,59.57
2018-06-28T20:55:56.962Z,58.99
2018-06-28T20:58:25.496Z,59.91
2018-06-28T21:00:54.093Z,60.56
2018-06-28T21:03:22.657Z,59.55
2018-06-28T21:05:51.253Z,60.43
2018-06-28T21:08:19.816Z,62.66
2018-06-28T21:10:48.404Z,63.84
2018-06-28T21:13:17.370Z,63.47
2018-06-28T21:15:48.069Z,64.32
2018-06-28T21:18:16.994Z,63.73
2018-06-28T21:20:47.809Z,63.79
2018-06-28T21:23:19.792Z,62.94
2018-06-28T21:25:51.008Z,64.74
2018-06-28T21:28:20.823Z,65.16
2018-06-28T21:30:53.822Z,64.79
2018-06-28T21:33:25.077Z,66.09
2018-06-28T21:35:58.224Z,66.24
2018-06-28T21:38:29.063Z,66.54
2018-06-28T21:41:02.678Z,67.84
2018-06-28T21:43:35.965Z,68.31
2018-06-28T21:46:08.288Z,67.86
2018-06-28T21:48:39.339Z,67.67
2018-06-28T21:51:18.732Z,66.83
2018-06-28T21:53:48.738Z,66.40
2018-06-28T21:56:25.633Z,66.66
2018-06-28T21:59:00.675Z,66.05
2018-06-28T22:01:35.464Z,66.69
2018-06-28T22:04:10.188Z,66.25
2018-06-28T22:06:45.357Z,65.45
2018-06-28T22:09:16.429Z,65.31
2018-06-28T22:11:52.567Z,65.04
2018-06-28T22:14:27.635Z,64.32
2018-06-28T22:17:07.037Z,62.62
2018-06-28T22:19:44.896Z,63.19
2018-06-28T22:22:17.310Z,61.91
2018-06-28T22:24:55.336Z,63.74
2018-06-28T22:27:29.904Z,64.12
2018-06-28T22:30:03.691Z,64.29
2018-06-28T22:32:36.015Z,66.47
2018-06-28T22:35:08.932Z,65.53
2018-06-28T22:37:43.882Z,66.05
2018-06-28T22:40:16.555Z,65.30
2018-06-28T22:42:50.243Z,65.97
2018-06-28T22:45:22.235Z,65.29
2018-06-28T22:47:54.404Z,65.52
2018-06-28T22:50:25.641Z,65.47
2018-06-28T22:53:08.441Z,65.28
2018-06-28T22:55:38.079Z,64.88
2018-06-28T22:58:11.114Z,66.08
2018-06-28T23:00:41.468Z,67.04
2018-06-28T23:03:17.256Z,66.42
2018-06-28T23:05:47.309Z,67.19
2018-06-28T23:08:15.874Z,67.26
2018-06-28T23:10:44.413Z,67.73
2018-06-28T23:13:13.112Z,68.29
2018-06-28T23:15:41.633Z,68.31
2018-06-28T23:18:10.391Z,67.34
2018-06-28T23:20:38.741Z,67.20
2018-06-28T23:23:07.296Z,67.32
2018-06-28T23:25:35.863Z,68.22
2018-06-28T23:28:04.636Z,69.44
2018-06-28T23:30:33.164Z,70.49
2018-06-28T23:33:01.771Z,70.84
2018-06-28T23:35:30.251Z,70.46
2018-06-28T23:37:58.813Z,70.62
2018-06-28T23:40:27.340Z,71.13
2018-06-28T23:42:55.897Z,70.22
2018-06-28T23:45:24.412Z,70.02
2018-06-28T23:47:52.956Z,72.57
2018-06-28T23:50:21.485Z,72.62
2018-06-28T23:52:50.096Z,72.34
2018-06-28T23:55:18.645Z,74.78
2018-06-28T23:57:47.208Z,74.83
